Time;durP1;ratioP1;P1;durP2;ratioP2;P2;SDS_P1;SDS_P2;PMS_P1;PMS_P2;Temp;Humidity;BMP_temperature;BMP_pressure;BME280_temperature;BME280_humidity;BME280_pressure;Samples;Min_cycle;Max_cycle;Signal;HPM_P1;HPM_P2
2021/12/26 00:00:16;;;;;;;6.18;1.85;;;-7.50;99.90;;;;;;5110846;28;20503;-86
2021/12/26 00:02:42;;;;;;;4.20;1.50;;;-7.50;99.90;;;;;;5120852;28;20377;-86
2021/12/26 00:05:09;;;;;;;3.85;1.95;;;-7.40;99.90;;;;;;5110246;28;20118;-89
2021/12/26 00:07:35;;;;;;;2.88;1.60;;;-7.40;99.90;;;;;;5104112;28;20131;-87
2021/12/26 00:10:01;;;;;;;6.05;2.17;;;-7.30;99.90;;;;;;5114001;28;20088;-86
2021/12/26 00:12:27;;;;;;;3.35;2.38;;;-7.30;99.90;;;;;;5109565;28;20043;-85
2021/12/26 00:14:52;;;;;;;4.57;2.33;;;-7.30;99.90;;;;;;5126758;28;20043;-86
2021/12/26 00:17:18;;;;;;;6.78;1.95;;;-7.30;99.90;;;;;;5129942;28;20090;-85
2021/12/26 00:19:44;;;;;;;6.88;2.30;;;-7.30;99.90;;;;;;5096560;28;20070;-85
2021/12/26 00:22:09;;;;;;;3.85;2.80;;;-7.30;99.90;;;;;;5113808;27;20052;-91
2021/12/26 00:24:35;;;;;;;9.52;4.25;;;-7.40;99.90;;;;;;5096894;28;20431;-86
2021/12/26 00:27:01;;;;;;;6.72;3.50;;;-7.40;99.90;;;;;;5120207;27;20043;-85
2021/12/26 00:29:27;;;;;;;6.32;3.13;;;-7.50;99.90;;;;;;5081166;28;20047;-86
2021/12/26 00:31:52;;;;;;;5.60;2.63;;;-7.60;99.90;;;;;;5113995;27;20582;-85
2021/12/26 00:34:19;;;;;;;4.32;2.40;;;-7.60;99.90;;;;;;5084603;27;20369;-86
2021/12/26 00:36:44;;;;;;;4.32;1.35;;;-7.60;99.90;;;;;;5136112;27;20051;-85
2021/12/26 00:39:10;;;;;;;2.88;1.50;;;-7.60;99.90;;;;;;5102434;28;20043;-89
2021/12/26 00:41:39;;;;;;;3.03;1.50;;;-7.60;99.90;;;;;;5117761;27;20043;-87
2021/12/26 00:44:07;;;;;;;6.43;2.67;;;-7.60;99.90;;;;;;5136387;27;20457;-86
2021/12/26 00:46:33;;;;;;;13.68;5.80;;;-7.60;99.90;;;;;;5074864;28;20049;-86
2021/12/26 00:48:58;;;;;;;7.80;4.07;;;-7.60;99.90;;;;;;5118815;27;20088;-86
2021/12/26 00:51:24;;;;;;;7.53;3.50;;;-7.60;99.90;;;;;;5133633;27;20044;-86
2021/12/26 00:53:50;;;;;;;7.85;2.83;;;-7.60;99.90;;;;;;5110634;27;20051;-87
2021/12/26 00:56:17;;;;;;;3.97;1.83;;;-7.60;99.90;;;;;;5118502;27;20047;-87
2021/12/26 00:58:43;;;;;;;6.68;2.10;;;-7.70;99.90;;;;;;5118644;27;20476;-85
2021/12/26 01:01:09;;;;;;;3.28;2.08;;;-7.70;99.90;;;;;;5118897;27;20058;-86
2021/12/26 01:03:35;;;;;;;3.92;1.88;;;-7.70;99.90;;;;;;5114856;28;20059;-86
2021/12/26 01:06:01;;;;;;;6.00;1.90;;;-7.80;99.90;;;;;;5113965;27;20047;-86
2021/12/26 01:08:31;;;;;;;2.60;1.40;;;-7.80;99.90;;;;;;5117699;27;20116;-85
2021/12/26 01:11:31;;;;;;;3.83;1.50;;;-7.80;99.90;;;;;;5127850;27;20132;-87
2021/12/26 01:13:58;;;;;;;5.18;2.20;;;-7.90;99.90;;;;;;5114676;28;20059;-86
2021/12/26 01:16:25;;;;;;;5.35;1.90;;;-8.00;99.90;;;;;;5117206;27;20051;-88
2021/12/26 01:18:52;;;;;;;5.43;2.80;;;-8.10;99.90;;;;;;5134979;27;20062;-85
2021/12/26 01:21:21;;;;;;;5.43;1.70;;;-8.20;99.90;;;;;;5117125;27;20103;-90
2021/12/26 01:23:52;;;;;;;3.30;1.67;;;-8.20;99.90;;;;;;5117294;27;20039;-84
2021/12/26 01:26:18;;;;;;;5.22;1.55;;;-8.20;99.90;;;;;;5126565;27;20047;-90
2021/12/26 01:28:44;;;;;;;7.55;3.38;;;-8.20;99.90;;;;;;5120667;27;20043;-89
2021/12/26 01:31:11;;;;;;;5.10;1.83;;;-8.20;99.90;;;;;;5133694;27;20042;-88
2021/12/26 01:33:37;;;;;;;3.72;1.60;;;-8.10;99.90;;;;;;5112983;28;20044;-85
2021/12/26 01:36:04;;;;;;;3.95;1.70;;;-8.10;99.90;;;;;;5098006;28;20043;-85
2021/12/26 01:38:30;;;;;;;5.30;1.85;;;-8.10;99.90;;;;;;5123425;27;20050;-85
2021/12/26 01:40:57;;;;;;;3.15;1.88;;;-8.10;99.90;;;;;;5113857;27;20055;-85
2021/12/26 01:43:26;;;;;;;6.53;1.98;;;-8.10;99.90;;;;;;5116148;27;20043;-85
2021/12/26 01:45:53;;;;;;;4.35;2.03;;;-8.10;99.90;;;;;;5116444;27;20054;-85
2021/12/26 01:48:20;;;;;;;4.70;2.63;;;-8.10;99.90;;;;;;5116527;27;20050;-85
2021/12/26 01:50:49;;;;;;;3.53;2.00;;;-8.10;99.90;;;;;;5096574;28;20134;-84
2021/12/26 01:53:15;;;;;;;3.22;1.63;;;-8.20;99.90;;;;;;5116844;27;20089;-84
2021/12/26 01:55:44;;;;;;;3.95;1.85;;;-8.20;99.90;;;;;;5096134;28;20035;-84
2021/12/26 01:58:15;;;;;;;3.53;1.63;;;-8.30;99.90;;;;;;5096004;27;20043;-84
2021/12/26 02:00:43;;;;;;;4.47;1.65;;;-8.20;99.90;;;;;;5128703;27;20492;-85
2021/12/26 02:03:09;;;;;;;3.72;1.33;;;-8.20;99.90;;;;;;5114695;28;20047;-85
2021/12/26 02:05:35;;;;;;;4.15;1.55;;;-8.20;99.90;;;;;;5104811;27;20455;-85
2021/12/26 02:08:01;;;;;;;3.03;1.45;;;-8.10;99.90;;;;;;5117787;27;20054;-84
2021/12/26 02:10:27;;;;;;;3.20;1.30;;;-8.00;99.90;;;;;;5116821;27;20039;-85
2021/12/26 02:12:52;;;;;;;2.85;1.40;;;-8.00;99.90;;;;;;5094659;28;20054;-84
2021/12/26 02:15:18;;;;;;;4.82;1.50;;;-8.00;99.90;;;;;;5097651;28;20084;-83
2021/12/26 02:17:44;;;;;;;3.67;2.13;;;-8.00;99.90;;;;;;5086631;28;20053;-84
2021/12/26 02:20:21;;;;;;;7.30;1.50;;;-8.10;99.90;;;;;;5075074;28;20044;-85
2021/12/26 02:22:54;;;;;;;3.05;1.88;;;-8.20;99.90;;;;;;5071685;28;20087;-84
2021/12/26 02:27:31;;;;;;;5.18;1.50;;;-8.20;99.90;;;;;;5108798;28;20055;-85
2021/12/26 02:28:19;;;;;;;2.13;1.20;;;-8.10;99.90;;;;;;5087274;28;20405;-85
2021/12/26 02:30:46;;;;;;;2.88;1.50;;;-8.10;99.90;;;;;;5080510;28;20051;-85
2021/12/26 02:33:12;;;;;;;2.67;1.35;;;-8.10;99.90;;;;;;5076076;28;20180;-84
2021/12/26 02:35:39;;;;;;;3.22;1.40;;;-8.10;99.90;;;;;;5089988;28;20511;-85
2021/12/26 02:38:07;;;;;;;4.35;1.45;;;-8.10;99.90;;;;;;5083134;28;20048;-85
2021/12/26 02:40:33;;;;;;;2.38;1.20;;;-8.10;99.90;;;;;;5092407;28;20127;-86
2021/12/26 02:42:59;;;;;;;3.38;1.20;;;-8.10;99.90;;;;;;5092917;28;20048;-86
2021/12/26 02:45:25;;;;;;;3.67;1.63;;;-8.10;99.90;;;;;;5075311;28;20098;-85
2021/12/26 02:47:51;;;;;;;5.90;1.65;;;-8.10;99.90;;;;;;5067516;28;20105;-85
2021/12/26 02:50:25;;;;;;;3.45;1.55;;;-8.10;99.90;;;;;;5076985;28;20753;-85
2021/12/26 02:52:52;;;;;;;5.22;1.30;;;-8.10;99.90;;;;;;5088904;28;20179;-85
2021/12/26 02:55:20;;;;;;;3.05;1.30;;;-8.00;99.90;;;;;;5101106;28;20478;-85
2021/12/26 02:57:51;;;;;;;3.38;1.42;;;-8.00;99.90;;;;;;5095265;28;20110;-85
2021/12/26 03:00:19;;;;;;;4.15;1.67;;;-8.00;99.90;;;;;;5112566;28;20040;-83
2021/12/26 03:02:48;;;;;;;2.15;1.38;;;-8.00;99.90;;;;;;5103269;28;20044;-84
2021/12/26 03:05:15;;;;;;;5.40;1.30;;;-7.90;99.90;;;;;;5077038;28;20083;-85
2021/12/26 03:07:41;;;;;;;3.85;1.83;;;-7.90;99.90;;;;;;5108868;28;20438;-85
2021/12/26 03:10:11;;;;;;;5.07;1.65;;;-7.90;99.90;;;;;;5094458;28;20105;-84
2021/12/26 03:12:42;;;;;;;8.15;1.42;;;-7.90;99.90;;;;;;5095383;28;20056;-84
2021/12/26 03:15:10;;;;;;;4.07;1.23;;;-7.90;99.90;;;;;;5096118;27;20058;-85
2021/12/26 03:17:37;;;;;;;4.90;1.70;;;-7.90;99.90;;;;;;5098858;27;20484;-85
2021/12/26 03:20:11;;;;;;;2.85;1.42;;;-7.90;99.90;;;;;;5114690;27;20125;-85
2021/12/26 03:22:37;;;;;;;3.88;1.52;;;-7.90;99.90;;;;;;5103088;28;20134;-85
2021/12/26 03:25:13;;;;;;;4.57;1.50;;;-7.90;99.90;;;;;;5095853;28;20087;-84
2021/12/26 03:27:39;;;;;;;5.25;1.42;;;-7.90;99.90;;;;;;5113941;27;20058;-85
2021/12/26 03:30:07;;;;;;;3.60;1.75;;;-7.90;99.90;;;;;;5115628;27;20043;-84
2021/12/26 03:32:33;;;;;;;3.47;1.52;;;-7.90;99.90;;;;;;5116143;27;20050;-85
2021/12/26 03:34:59;;;;;;;3.65;1.60;;;-7.90;99.90;;;;;;5115464;27;20092;-85
2021/12/26 03:37:25;;;;;;;5.35;1.50;;;-7.90;99.90;;;;;;5076505;27;20047;-86
2021/12/26 03:39:51;;;;;;;3.88;1.45;;;-8.00;99.90;;;;;;5110192;28;20472;-86
2021/12/26 03:42:21;;;;;;;4.18;1.40;;;-7.90;99.90;;;;;;5078423;28;20090;-83
2021/12/26 03:44:50;;;;;;;4.30;1.40;;;-8.00;99.90;;;;;;5102512;28;20047;-83
2021/12/26 03:47:17;;;;;;;3.92;1.50;;;-7.90;99.90;;;;;;5132270;27;20047;-83
2021/12/26 03:49:44;;;;;;;4.18;1.80;;;-7.90;99.90;;;;;;5115362;27;20130;-84
2021/12/26 03:52:10;;;;;;;3.08;1.63;;;-7.90;99.90;;;;;;5103928;28;20036;-84
2021/12/26 03:54:36;;;;;;;2.80;1.20;;;-7.90;99.90;;;;;;5108083;28;20051;-83
2021/12/26 03:57:02;;;;;;;2.70;1.45;;;-8.00;99.90;;;;;;5076615;28;20100;-86
2021/12/26 03:59:28;;;;;;;4.63;1.70;;;-8.00;99.90;;;;;;5093840;28;20039;-83
2021/12/26 04:01:55;;;;;;;3.63;1.67;;;-8.10;99.90;;;;;;5102262;28;20111;-83
2021/12/26 04:04:21;;;;;;;3.80;1.42;;;-8.10;99.90;;;;;;5101119;28;20051;-86
2021/12/26 04:06:47;;;;;;;3.67;1.45;;;-8.10;99.90;;;;;;5114943;28;20180;-83
2021/12/26 04:09:13;;;;;;;3.22;1.85;;;-8.20;99.90;;;;;;5114859;28;20066;-83
2021/12/26 04:11:42;;;;;;;3.00;1.48;;;-8.20;99.90;;;;;;5111392;28;20085;-84
2021/12/26 04:14:08;;;;;;;3.25;1.70;;;-8.20;99.90;;;;;;5091942;27;20050;-82
2021/12/26 04:16:34;;;;;;;2.90;1.80;;;-8.20;99.90;;;;;;5101180;27;20391;-84
2021/12/26 04:19:00;;;;;;;3.03;1.73;;;-8.30;99.90;;;;;;5118514;27;20047;-85
2021/12/26 04:21:25;;;;;;;2.63;1.50;;;-8.30;99.90;;;;;;5099516;27;20049;-85
2021/12/26 04:23:51;;;;;;;4.65;1.63;;;-8.30;99.90;;;;;;5093753;28;20039;-85
2021/12/26 04:26:17;;;;;;;3.22;1.60;;;-8.30;99.90;;;;;;5113794;27;20082;-85
2021/12/26 04:28:42;;;;;;;3.83;1.48;;;-8.30;99.90;;;;;;5117455;27;20121;-89
2021/12/26 04:31:08;;;;;;;5.60;1.75;;;-8.30;99.90;;;;;;5094830;28;20149;-84
2021/12/26 04:33:34;;;;;;;3.10;1.75;;;-8.30;99.90;;;;;;5089496;28;20123;-83
2021/12/26 04:36:00;;;;;;;3.92;1.90;;;-8.30;99.90;;;;;;5113913;27;20042;-84
2021/12/26 04:38:26;;;;;;;6.78;2.42;;;-8.30;99.90;;;;;;5075887;27;20058;-83
2021/12/26 04:40:52;;;;;;;3.53;1.63;;;-8.30;99.90;;;;;;5116795;27;20034;-84
2021/12/26 04:43:22;;;;;;;2.70;1.73;;;-8.30;99.90;;;;;;5095383;27;20054;-83
2021/12/26 04:45:48;;;;;;;5.18;2.25;;;-8.30;99.90;;;;;;5133436;27;20051;-85
2021/12/26 04:48:15;;;;;;;3.80;1.70;;;-8.30;99.90;;;;;;5116319;27;20053;-85
2021/12/26 04:50:42;;;;;;;4.18;1.95;;;-8.30;99.90;;;;;;5116662;27;20099;-83
2021/12/26 04:53:08;;;;;;;2.85;1.60;;;-8.30;99.90;;;;;;5134139;27;20638;-85
2021/12/26 04:55:34;;;;;;;4.00;2.25;;;-8.40;99.90;;;;;;5133662;27;20030;-84
2021/12/26 04:58:00;;;;;;;2.80;1.63;;;-8.40;99.90;;;;;;5116667;27;20107;-84
2021/12/26 05:00:28;;;;;;;5.13;2.10;;;-8.40;99.90;;;;;;5100110;27;20043;-84
2021/12/26 05:02:56;;;;;;;3.97;1.83;;;-8.50;99.90;;;;;;5116390;27;20049;-83
2021/12/26 05:05:22;;;;;;;4.00;2.42;;;-8.50;99.90;;;;;;5116956;27;20058;-84
2021/12/26 05:07:49;;;;;;;2.72;1.63;;;-8.50;99.90;;;;;;5117252;27;20050;-83
2021/12/26 05:10:18;;;;;;;3.35;2.15;;;-8.50;99.90;;;;;;5135953;27;20049;-85
2021/12/26 05:12:44;;;;;;;2.97;1.67;;;-8.50;99.90;;;;;;5120911;27;20408;-84
2021/12/26 05:15:12;;;;;;;6.03;1.67;;;-8.50;99.90;;;;;;5119713;27;20126;-83
2021/12/26 05:17:40;;;;;;;3.08;1.67;;;-8.40;99.90;;;;;;5119261;27;20058;-84
2021/12/26 05:20:07;;;;;;;3.17;1.60;;;-8.40;99.90;;;;;;5136028;27;20047;-85
2021/12/26 05:22:33;;;;;;;5.88;1.80;;;-8.40;99.90;;;;;;5102216;27;20038;-85
2021/12/26 05:24:58;;;;;;;5.07;1.80;;;-8.40;99.90;;;;;;5136806;27;20050;-84
2021/12/26 05:27:24;;;;;;;4.10;2.10;;;-8.40;99.90;;;;;;5095127;27;20035;-83
2021/12/26 05:29:50;;;;;;;4.75;1.80;;;-8.30;99.90;;;;;;5083029;27;20088;-85
2021/12/26 05:32:16;;;;;;;4.00;1.90;;;-8.30;99.90;;;;;;5099897;27;20054;-84
2021/12/26 05:34:41;;;;;;;3.55;2.20;;;-8.30;99.90;;;;;;5116235;27;20495;-84
2021/12/26 05:37:07;;;;;;;4.47;1.92;;;-8.30;99.90;;;;;;5095508;27;20494;-84
2021/12/26 05:39:33;;;;;;;5.50;2.50;;;-8.30;99.90;;;;;;5137271;27;20046;-84
2021/12/26 05:41:58;;;;;;;4.55;2.17;;;-8.30;99.90;;;;;;5119235;27;20043;-84
2021/12/26 05:44:24;;;;;;;4.60;2.40;;;-8.30;99.90;;;;;;5119863;27;20045;-83
2021/12/26 05:46:50;;;;;;;4.50;2.10;;;-8.20;99.90;;;;;;5109489;27;20055;-87
2021/12/26 05:49:15;;;;;;;5.63;2.25;;;-8.20;99.90;;;;;;5078742;27;20146;-84
2021/12/26 05:51:42;;;;;;;2.90;1.92;;;-8.20;99.90;;;;;;5084349;27;20180;-86
2021/12/26 05:54:08;;;;;;;5.40;2.65;;;-8.20;99.90;;;;;;5113850;27;20047;-83
2021/12/26 05:56:34;;;;;;;4.20;2.55;;;-8.20;99.90;;;;;;5098076;27;20050;-84
2021/12/26 05:59:00;;;;;;;4.78;2.50;;;-8.10;99.90;;;;;;5136604;27;20057;-85
2021/12/26 06:01:26;;;;;;;7.15;2.58;;;-8.10;99.90;;;;;;5099542;27;20153;-83
2021/12/26 06:03:51;;;;;;;4.80;2.67;;;-8.10;99.90;;;;;;5129309;27;20396;-83
2021/12/26 06:06:17;;;;;;;6.90;2.50;;;-8.20;99.90;;;;;;5116739;27;20046;-84
2021/12/26 06:08:43;;;;;;;3.53;2.50;;;-8.20;99.90;;;;;;5092901;27;20090;-85
2021/12/26 06:11:09;;;;;;;10.25;2.67;;;-8.20;99.90;;;;;;5117773;27;20058;-83
2021/12/26 06:13:34;;;;;;;5.05;3.10;;;-8.10;99.90;;;;;;5118833;27;20075;-85
2021/12/26 06:16:00;;;;;;;6.07;2.83;;;-8.20;99.90;;;;;;5102086;27;20054;-88
2021/12/26 06:18:27;;;;;;;6.00;2.95;;;-8.10;99.90;;;;;;5135917;27;20047;-85
2021/12/26 06:20:53;;;;;;;6.85;2.53;;;-8.10;99.90;;;;;;5118741;27;20041;-84
2021/12/26 06:23:18;;;;;;;8.73;2.95;;;-8.00;99.90;;;;;;5135478;27;20043;-83
2021/12/26 06:25:44;;;;;;;6.00;2.88;;;-8.00;99.90;;;;;;5118771;27;20034;-84
2021/12/26 06:28:10;;;;;;;6.85;3.30;;;-8.00;99.90;;;;;;5090038;27;20046;-85
2021/12/26 06:30:36;;;;;;;4.88;2.97;;;-8.00;99.90;;;;;;5132421;27;20103;-84
2021/12/26 06:33:01;;;;;;;4.20;2.90;;;-8.10;99.90;;;;;;5075780;27;20047;-87
2021/12/26 06:35:28;;;;;;;8.27;3.30;;;-8.00;99.90;;;;;;5085753;27;20039;-84
2021/12/26 06:37:53;;;;;;;5.72;3.17;;;-8.00;99.90;;;;;;5099379;27;20073;-84
2021/12/26 06:40:19;;;;;;;5.40;2.63;;;-8.00;99.90;;;;;;5118517;27;20042;-83
2021/12/26 06:42:46;;;;;;;6.07;3.05;;;-8.00;99.90;;;;;;5118598;27;20471;-84
2021/12/26 06:45:15;;;;;;;10.82;3.58;;;-8.10;99.90;;;;;;5122567;27;20053;-80
2021/12/26 06:47:46;;;;;;;6.88;2.97;;;-8.00;99.90;;;;;;5118310;27;20050;-79
2021/12/26 06:50:12;;;;;;;5.53;2.90;;;-8.00;99.90;;;;;;5099325;27;20039;-81
2021/12/26 06:52:37;;;;;;;6.03;3.40;;;-8.00;99.90;;;;;;5117454;27;20130;-83
2021/12/26 06:55:04;;;;;;;6.68;3.53;;;-8.00;99.90;;;;;;5089611;27;20051;-90
2021/12/26 06:57:29;;;;;;;6.72;3.47;;;-8.10;99.90;;;;;;5114375;27;20126;-82
2021/12/26 06:59:55;;;;;;;7.55;3.53;;;-8.00;99.90;;;;;;5100431;27;20149;-83
2021/12/26 07:02:21;;;;;;;7.07;3.28;;;-8.00;99.90;;;;;;5072302;27;20055;-82
2021/12/26 07:04:47;;;;;;;7.43;3.60;;;-8.00;99.90;;;;;;5117462;27;20046;-83
2021/12/26 07:07:13;;;;;;;6.22;3.38;;;-7.90;99.90;;;;;;5133930;27;20467;-86
2021/12/26 07:09:39;;;;;;;8.27;3.55;;;-7.90;99.90;;;;;;5114074;27;20054;-85
2021/12/26 07:12:06;;;;;;;7.15;4.07;;;-7.90;99.90;;;;;;5096697;27;20043;-88
2021/12/26 07:14:32;;;;;;;5.60;3.70;;;-7.80;99.90;;;;;;5118197;27;20079;-84
2021/12/26 07:16:58;;;;;;;7.35;3.88;;;-7.80;99.90;;;;;;5097943;27;20055;-83
2021/12/26 07:19:23;;;;;;;5.82;3.53;;;-7.80;99.90;;;;;;5094627;27;20043;-84
2021/12/26 07:21:49;;;;;;;7.53;4.38;;;-7.80;99.90;;;;;;5098026;27;20050;-83
2021/12/26 07:24:15;;;;;;;7.28;4.15;;;-7.80;99.90;;;;;;5134536;27;20072;-85
2021/12/26 07:26:41;;;;;;;7.57;3.75;;;-7.70;99.90;;;;;;5119326;27;20103;-84
2021/12/26 07:29:07;;;;;;;8.70;4.28;;;-7.70;99.90;;;;;;5102097;27;20137;-83
2021/12/26 07:31:33;;;;;;;7.63;3.58;;;-7.70;99.90;;;;;;5097211;27;20088;-79
2021/12/26 07:33:59;;;;;;;7.22;3.80;;;-7.70;99.90;;;;;;5115665;27;20480;-80
2021/12/26 07:36:24;;;;;;;6.82;3.83;;;-7.70;99.90;;;;;;5097800;27;20766;-84
2021/12/26 07:38:51;;;;;;;7.38;4.00;;;-7.60;99.90;;;;;;5135314;27;20087;-82
2021/12/26 07:41:17;;;;;;;8.10;3.88;;;-7.60;99.90;;;;;;5118132;27;20041;-80
2021/12/26 07:43:43;;;;;;;8.13;3.92;;;-7.60;99.90;;;;;;5134896;27;20039;-80
2021/12/26 07:46:08;;;;;;;6.75;3.58;;;-7.60;99.90;;;;;;5135209;27;20552;-80
2021/12/26 07:48:34;;;;;;;9.50;4.47;;;-7.60;99.90;;;;;;5134579;27;20077;-78
2021/12/26 07:51:01;;;;;;;9.15;4.00;;;-7.60;99.90;;;;;;5100126;27;20061;-80
2021/12/26 07:53:27;;;;;;;8.70;3.97;;;-7.60;99.90;;;;;;5110528;27;20043;-79
2021/12/26 07:55:52;;;;;;;9.07;4.43;;;-7.60;99.90;;;;;;5108933;27;20065;-78
2021/12/26 07:58:18;;;;;;;7.65;3.90;;;-7.60;99.90;;;;;;5095622;28;20097;-82
2021/12/26 08:00:44;;;;;;;6.57;3.85;;;-7.60;99.90;;;;;;5114764;27;20043;-82
2021/12/26 08:03:10;;;;;;;11.15;4.38;;;-7.60;99.90;;;;;;5104616;27;20047;-82
2021/12/26 08:05:36;;;;;;;9.82;4.13;;;-7.50;99.90;;;;;;5099915;27;20035;-82
2021/12/26 08:08:02;;;;;;;7.43;4.40;;;-7.50;99.90;;;;;;5134520;27;20055;-82
2021/12/26 08:10:28;;;;;;;11.98;4.45;;;-7.50;99.90;;;;;;5132388;27;20492;-82
2021/12/26 08:12:53;;;;;;;8.60;3.97;;;-7.50;99.90;;;;;;5097244;27;20050;-81
2021/12/26 08:15:19;;;;;;;7.78;4.43;;;-7.50;99.90;;;;;;5113051;28;20058;-80
2021/12/26 08:17:45;;;;;;;6.60;3.97;;;-7.50;99.90;;;;;;5106057;28;20046;-83
2021/12/26 08:20:11;;;;;;;7.00;4.10;;;-7.50;99.90;;;;;;5115618;27;20060;-81
2021/12/26 08:22:37;;;;;;;10.00;4.22;;;-7.50;99.90;;;;;;5099271;27;20801;-80
2021/12/26 08:25:04;;;;;;;6.82;4.18;;;-7.50;99.90;;;;;;5132901;27;20035;-80
2021/12/26 08:27:32;;;;;;;7.97;4.20;;;-7.50;99.90;;;;;;5101029;28;20039;-83
2021/12/26 08:29:59;;;;;;;7.07;3.78;;;-7.40;99.90;;;;;;5096247;28;20500;-78
2021/12/26 08:32:25;;;;;;;6.13;4.00;;;-7.40;99.90;;;;;;5078584;28;20043;-79
2021/12/26 08:34:51;;;;;;;7.30;3.92;;;-7.30;99.90;;;;;;5096012;28;20043;-79
2021/12/26 08:37:17;;;;;;;8.93;4.35;;;-7.30;99.90;;;;;;5118588;27;20057;-85
2021/12/26 08:39:44;;;;;;;9.45;3.90;;;-7.20;99.90;;;;;;5099757;27;20039;-80
2021/12/26 08:42:11;;;;;;;23.60;12.05;;;-7.20;99.90;;;;;;5100020;27;20047;-79
2021/12/26 08:44:38;;;;;;;15.05;7.53;;;-7.10;99.90;;;;;;5136733;27;20078;-80
2021/12/26 08:47:05;;;;;;;12.95;6.68;;;-7.00;99.90;;;;;;5137287;27;20058;-80
2021/12/26 08:49:31;;;;;;;19.15;8.13;;;-7.00;99.90;;;;;;5110351;27;20066;-80
2021/12/26 08:51:57;;;;;;;14.13;7.53;;;-6.90;99.90;;;;;;5083477;27;20484;-79
2021/12/26 08:54:26;;;;;;;14.85;7.35;;;-6.90;99.90;;;;;;5082352;27;20047;-80
2021/12/26 08:56:55;;;;;;;15.57;6.57;;;-6.80;99.90;;;;;;5082983;27;20415;-80
2021/12/26 08:59:24;;;;;;;14.57;6.88;;;-6.70;99.90;;;;;;5115566;27;20049;-84
2021/12/26 09:01:50;;;;;;;15.75;7.78;;;-6.60;99.90;;;;;;5137577;27;20496;-80
2021/12/26 09:04:16;;;;;;;32.20;14.10;;;-6.60;99.90;;;;;;5137324;27;20551;-79
2021/12/26 09:06:42;;;;;;;19.02;8.90;;;-6.50;99.90;;;;;;5103022;27;20125;-79
2021/12/26 09:09:08;;;;;;;17.88;10.20;;;-6.50;99.90;;;;;;5113822;27;20051;-80
2021/12/26 09:11:34;;;;;;;15.88;7.75;;;-6.50;99.90;;;;;;5099449;27;20082;-79
2021/12/26 09:14:00;;;;;;;15.90;8.40;;;-6.40;99.90;;;;;;5120183;27;20043;-79
2021/12/26 09:16:33;;;;;;;18.33;8.75;;;-6.40;99.90;;;;;;5095582;28;20450;-80
2021/12/26 09:18:59;;;;;;;16.45;9.55;;;-6.40;99.90;;;;;;5080567;28;20055;-81
2021/12/26 09:21:25;;;;;;;19.30;11.05;;;-6.30;99.90;;;;;;5095927;28;20050;-81
2021/12/26 09:23:51;;;;;;;33.60;15.23;;;-6.30;99.90;;;;;;5113477;28;20133;-80
2021/12/26 09:26:16;;;;;;;19.10;10.68;;;-6.30;99.90;;;;;;5078994;28;20043;-81
2021/12/26 09:28:42;;;;;;;17.55;10.18;;;-6.20;99.90;;;;;;5091797;28;20059;-79
2021/12/26 09:31:08;;;;;;;18.65;10.70;;;-6.20;99.90;;;;;;5059519;28;20473;-79
2021/12/26 09:33:33;;;;;;;13.57;9.02;;;-6.10;99.90;;;;;;5059341;28;20095;-79
2021/12/26 09:36:00;;;;;;;18.10;10.95;;;-6.00;99.90;;;;;;5087844;28;20529;-80
2021/12/26 09:38:26;;;;;;;7.55;5.03;;;-6.00;99.90;;;;;;5079039;28;20043;-85
2021/12/26 09:40:52;;;;;;;9.65;5.25;;;-5.90;99.90;;;;;;5096619;28;20043;-79
2021/12/26 09:43:18;;;;;;;7.68;4.85;;;-5.80;99.90;;;;;;5113140;28;20062;-79
2021/12/26 09:45:44;;;;;;;12.77;6.57;;;-5.70;99.90;;;;;;5062198;28;20047;-80
2021/12/26 09:48:09;;;;;;;10.80;5.50;;;-5.70;99.90;;;;;;5095989;28;20107;-80
2021/12/26 09:50:35;;;;;;;7.35;4.60;;;-5.60;99.90;;;;;;5078710;28;20040;-80
2021/12/26 09:53:01;;;;;;;8.70;5.20;;;-5.60;99.90;;;;;;5112978;28;20055;-82
2021/12/26 09:55:29;;;;;;;7.72;4.63;;;-5.50;99.90;;;;;;5095865;28;20086;-84
2021/12/26 09:57:55;;;;;;;8.75;4.95;;;-5.50;99.90;;;;;;5113044;28;20044;-84
2021/12/26 10:00:22;;;;;;;9.27;5.03;;;-5.40;99.90;;;;;;5095857;28;20804;-81
2021/12/26 10:03:36;;;;;;;13.45;7.20;;;-5.40;99.90;;;;;;5095560;28;20059;-80
2021/12/26 10:06:13;;;;;;;22.17;9.93;;;-5.30;99.90;;;;;;5096075;28;20058;-81
2021/12/26 10:09:00;;;;;;;18.33;8.02;;;-5.20;99.90;;;;;;5095195;28;20433;-80
2021/12/26 10:11:29;;;;;;;28.15;11.23;;;-5.10;99.90;;;;;;5111978;28;20780;-80
2021/12/26 10:14:10;;;;;;;24.02;9.48;;;-5.10;99.90;;;;;;5095502;28;20090;-80
2021/12/26 10:16:38;;;;;;;17.63;8.73;;;-5.00;99.90;;;;;;5094910;28;20138;-80
2021/12/26 10:19:06;;;;;;;19.27;8.45;;;-4.90;99.90;;;;;;5095038;28;20134;-80
2021/12/26 10:21:36;;;;;;;11.10;5.85;;;-4.80;99.90;;;;;;5094841;28;20038;-84
2021/12/26 10:24:02;;;;;;;14.30;7.40;;;-4.80;99.90;;;;;;5078267;28;20548;-80
2021/12/26 10:26:31;;;;;;;13.73;6.63;;;-4.80;99.90;;;;;;5075181;28;20134;-80
2021/12/26 10:29:24;;;;;;;10.80;4.95;;;-4.70;99.90;;;;;;5075018;28;20063;-80
2021/12/26 10:32:00;;;;;;;18.88;8.65;;;-4.60;99.90;;;;;;5090009;28;20451;-81
2021/12/26 10:34:37;;;;;;;15.32;7.70;;;-4.50;99.90;;;;;;5107432;28;20051;-80
2021/12/26 10:37:06;;;;;;;13.77;7.30;;;-4.50;99.90;;;;;;5094743;28;20043;-80
2021/12/26 10:39:36;;;;;;;11.80;6.85;;;-4.40;99.90;;;;;;5111568;28;20046;-84
2021/12/26 10:42:05;;;;;;;19.10;9.40;;;-4.30;99.90;;;;;;5094975;28;20401;-80
2021/12/26 10:44:57;;;;;;;11.80;6.45;;;-4.30;99.90;;;;;;5111440;28;20127;-81
2021/12/26 10:47:25;;;;;;;9.43;5.38;;;-4.20;99.90;;;;;;5102861;28;20048;-80
2021/12/26 10:49:53;;;;;;;10.55;5.40;;;-4.10;99.90;;;;;;5111462;28;20055;-80
2021/12/26 10:52:25;;;;;;;8.50;5.10;;;-4.00;99.90;;;;;;5094575;28;20468;-81
2021/12/26 10:55:12;;;;;;;8.85;5.47;;;-3.90;99.90;;;;;;5093941;28;20519;-81
2021/12/26 10:57:42;;;;;;;6.20;3.67;;;-3.90;99.90;;;;;;5111073;28;20047;-84
2021/12/26 11:00:14;;;;;;;8.43;4.95;;;-3.80;99.90;;;;;;5111536;28;20070;-80
2021/12/26 11:02:44;;;;;;;8.90;4.40;;;-3.80;99.90;;;;;;5110998;28;20484;-79
2021/12/26 11:05:20;;;;;;;8.90;4.50;;;-3.70;99.90;;;;;;5111276;28;20051;-82
2021/12/26 11:07:47;;;;;;;9.85;4.47;;;-3.60;99.90;;;;;;5093701;28;20092;-80
2021/12/26 11:10:16;;;;;;;8.18;4.97;;;-3.60;99.90;;;;;;5111418;28;20544;-80
2021/12/26 11:12:52;;;;;;;7.18;4.40;;;-3.50;99.90;;;;;;5111002;28;20073;-80
2021/12/26 11:15:20;;;;;;;8.98;4.72;;;-3.50;99.90;;;;;;5096711;27;20059;-80
2021/12/26 11:17:59;;;;;;;11.07;5.93;;;-3.50;99.90;;;;;;5133843;27;20047;-81
2021/12/26 11:20:48;;;;;;;14.65;6.63;;;-3.40;99.90;;;;;;5134518;27;20141;-80
2021/12/26 11:23:20;;;;;;;19.60;9.20;;;-3.30;99.90;;;;;;5116934;27;20046;-80
2021/12/26 11:25:51;;;;;;;11.52;6.55;;;-3.20;99.90;;;;;;5120696;27;20047;-78
2021/12/26 11:28:26;;;;;;;12.45;7.47;;;-3.20;99.90;;;;;;5134297;27;20038;-78
2021/12/26 11:30:54;;;;;;;8.85;5.35;;;-3.10;99.90;;;;;;5134263;27;20122;-78
2021/12/26 11:33:20;;;;;;;9.25;4.78;;;-3.10;99.90;;;;;;5117785;27;20062;-79
2021/12/26 11:35:48;;;;;;;8.48;5.00;;;-3.00;99.90;;;;;;5124099;27;20043;-80
2021/12/26 11:38:19;;;;;;;12.48;5.78;;;-3.00;99.90;;;;;;5097070;27;20042;-79
2021/12/26 11:40:49;;;;;;;7.45;4.50;;;-3.00;99.90;;;;;;5113610;27;20165;-79
2021/12/26 11:43:21;;;;;;;11.75;6.10;;;-3.00;99.90;;;;;;5113707;28;20055;-81
2021/12/26 11:46:21;;;;;;;6.22;4.00;;;-2.90;99.90;;;;;;5125439;27;20092;-79
2021/12/26 11:49:08;;;;;;;6.82;4.20;;;-2.90;99.90;;;;;;5116470;27;20047;-79
2021/12/26 11:52:06;;;;;;;6.80;4.47;;;-2.80;99.90;;;;;;5133760;27;20380;-79
2021/12/26 11:54:55;;;;;;;7.18;4.65;;;-2.70;99.90;;;;;;5116856;27;20054;-80
2021/12/26 11:57:27;;;;;;;10.32;4.57;;;-2.70;99.90;;;;;;5100945;27;20059;-78
2021/12/26 12:00:07;;;;;;;7.68;4.90;;;-2.70;99.90;;;;;;5133439;27;20047;-79
2021/12/26 12:02:49;;;;;;;8.48;4.82;;;-2.70;99.90;;;;;;5116968;27;20054;-79
2021/12/26 12:05:23;;;;;;;10.05;4.90;;;-2.60;99.90;;;;;;5116744;27;20042;-80
2021/12/26 12:07:54;;;;;;;7.93;4.75;;;-2.60;99.90;;;;;;5130089;27;20099;-79
2021/12/26 12:10:54;;;;;;;7.47;4.50;;;-2.50;99.90;;;;;;5103999;28;20054;-80
2021/12/26 12:13:26;;;;;;;8.35;4.53;;;-2.50;99.90;;;;;;5096285;28;20104;-80
2021/12/26 12:16:09;;;;;;;8.82;4.93;;;-2.50;99.90;;;;;;5112421;28;20051;-80
2021/12/26 12:18:38;;;;;;;12.48;6.35;;;-2.50;99.90;;;;;;5100626;27;20164;-81
2021/12/26 12:21:07;;;;;;;29.98;11.65;;;-2.40;99.90;;;;;;5099664;27;20043;-79
2021/12/26 12:23:33;;;;;;;10.25;5.45;;;-2.40;99.90;;;;;;5100166;27;20054;-80
2021/12/26 12:25:59;;;;;;;8.88;5.53;;;-2.40;99.90;;;;;;5116753;27;20047;-79
2021/12/26 12:28:31;;;;;;;10.15;5.57;;;-2.40;99.90;;;;;;5085811;27;20043;-79
2021/12/26 12:31:09;;;;;;;9.75;5.85;;;-2.40;99.90;;;;;;5119878;27;20049;-80
2021/12/26 12:33:37;;;;;;;9.20;5.40;;;-2.30;99.90;;;;;;5120389;27;20038;-81
2021/12/26 12:36:23;;;;;;;9.23;6.03;;;-2.30;99.90;;;;;;5103690;27;20487;-79
2021/12/26 12:38:49;;;;;;;8.50;4.80;;;-2.20;99.90;;;;;;5120184;27;20095;-85
2021/12/26 12:41:30;;;;;;;8.52;4.50;;;-2.20;99.90;;;;;;5101858;27;20129;-79
2021/12/26 12:44:06;;;;;;;8.13;5.25;;;-2.10;99.90;;;;;;5136865;27;20057;-79
2021/12/26 12:46:53;;;;;;;7.53;4.43;;;-2.10;99.90;;;;;;5137626;27;20043;-79
2021/12/26 12:49:20;;;;;;;9.45;4.50;;;-2.10;99.90;;;;;;5116626;27;20490;-79
2021/12/26 12:51:47;;;;;;;9.88;4.53;;;-2.00;99.90;;;;;;5082941;27;20046;-78